Cotes De Bretagne — FW3973 — position and weather

sailwx.info

Track history (hours):
 
Tides and Currents Weather Stations Pressure Air Temp Water Temp Dewpoint Dewpoint Depression Visibility Wind Speed Wind Dir Waves Ship Positions

Cotes De Bretagne

Last reported at 2016-Dec-01 17:18 UTC. Time now 2016-Dec-04 06:12 UTC.
Position N 48°39' W 002°01'.

Length 75 m; draft 4.2 m.

Type: Dredging. MMSI: 227003850.

Date/timePositionNaut miles runAvg speedWind from/ knotsBaromVisibWave heightAir tempDewpointWater temp
2016-Dec-01 17:18N 48°39' W 002°01'34 6.8
2016-Dec-01 12:19N 48°49' W 002°50'0 0.1
2016-Dec-01 11:31N 48°49' W 002°50'0 0.0
2016-Dec-01 02:27N 48°49' W 002°50'64 8.0
2016-Nov-30 18:30N 48°43' W 004°26'1111.6
2016-Nov-30 17:33N 48°39' W 004°41'1111.2
2016-Nov-30 16:34N 48°30' W 004°50'1110.6
2016-Nov-30 15:34N 48°20' W 004°48'1010.1
2016-Nov-30 14:33N 48°10' W 004°46'1110.9
2016-Nov-30 13:33N 47°59' W 004°42'4110.2
2016-Nov-30 09:30N 47°38' W 003°49'1010.6
2016-Nov-30 08:33N 47°40' W 003°34'10 9.5
2016-Nov-30 07:33N 47°44' W 003°21'1 1.5
2016-Nov-30 06:33N 47°45' W 003°19'0 0.0
2016-Nov-30 05:33N 47°45' W 003°19'0 0.0
2016-Nov-30 04:34N 47°45' W 003°19'2 1.6
2016-Nov-30 03:32N 47°44' W 003°21'0 0.0
2016-Nov-30 02:33N 47°44' W 003°21'0 0.0
2016-Nov-30 01:34N 47°44' W 003°21'0 0.0
2016-Nov-30 00:33N 47°44' W 003°21'0 0.0
2016-Nov-29 23:33N 47°44' W 003°21'0 0.0
2016-Nov-29 22:33N 47°44' W 003°21'0 0.0
2016-Nov-29 21:33N 47°44' W 003°21'0 0.0
2016-Nov-29 20:33N 47°44' W 003°21'0 0.1
2016-Nov-29 19:33N 47°44' W 003°21'7 7.3
2016-Nov-29 18:34N 47°37' W 003°20'9 9.3
2016-Nov-29 17:34N 47°29' W 003°13'9 9.4
2016-Nov-29 16:33N 47°22' W 003°04'9 9.0
2016-Nov-29 15:33N 47°15' W 002°55'9 8.8
2016-Nov-29 14:33N 47°08' W 002°47'45 9.0
2016-Nov-29 09:33N 46°34' W 002°04'9 9.4
2016-Nov-29 08:33N 46°26' W 001°57'9 9.3
2016-Nov-29 07:33N 46°18' W 001°49'7 1.1
2016-Nov-29 01:33N 46°13' W 001°44'10 9.7
2016-Nov-29 00:33N 46°21' W 001°52'1010.0
2016-Nov-28 23:33N 46°29' W 001°60'10 9.9
2016-Nov-28 22:33N 46°37' W 002°07'12 9.5
2016-Nov-28 21:19N 46°47' W 002°17'24 8.6
2016-Nov-28 18:29N 47°11' W 002°18'1112.0
2016-Nov-28 17:33N 47°18' W 002°05'1212.0
2016-Nov-28 16:33N 47°13' W 001°49'8 7.6
2016-Nov-28 15:33N 47°12' W 001°38'0 0.0
2016-Nov-28 14:33N 47°12' W 001°38'1 0.8
2016-Nov-28 13:34N 47°11' W 001°39'1010.0
2016-Nov-28 12:33N 47°16' W 001°52'1110.6
2016-Nov-28 11:33N 47°18' W 002°07'11 9.2
2016-Nov-28 10:22N 47°10' W 002°18'32 6.6
2016-Nov-28 05:29N 46°38' W 002°08'8 8.7
2016-Nov-28 04:33N 46°32' W 002°01'9 8.6
2016-Nov-28 03:33N 46°25' W 001°54'9 8.8
2016-Nov-28 02:33N 46°18' W 001°47'4 0.6
2016-Nov-27 20:24N 46°14' W 001°49'8 9.8
2016-Nov-27 19:33N 46°20' W 001°57'10 9.8
2016-Nov-27 18:33N 46°26' W 002°08'43 9.9
2016-Nov-27 14:12N 46°56' W 002°53'710.1
2016-Nov-27 13:30N 47°01' W 003°01'1010.0
2016-Nov-27 12:33N 47°07' W 003°12'10 9.8
2016-Nov-27 11:33N 47°13' W 003°23'9 9.4
2016-Nov-27 10:33N 47°19' W 003°34'9 9.1
2016-Nov-27 09:31N 47°24' W 003°45'9 9.0
2016-Nov-27 08:31N 47°29' W 003°56'42 9.6
2016-Nov-27 04:12N 47°58' W 004°41'711.4
2016-Nov-27 03:33N 48°04' W 004°46'1110.6
2016-Nov-27 02:33N 48°15' W 004°46'9 9.4
2016-Nov-27 01:33N 48°24' W 004°49'9 8.9
2016-Nov-27 00:33N 48°33' W 004°51'9 8.6
2016-Nov-26 23:33N 48°40' W 004°43'1010.0
2016-Nov-26 22:33N 48°42' W 004°28'  
Track history (hours):
 
Tides and Currents Weather Stations Pressure Air Temp Water Temp Dewpoint Dewpoint Depression Visibility Wind Speed Wind Dir Waves Ship Positions

Cotes De Bretagne

Last reported at 2016-Dec-01 17:18 UTC. Time now 2016-Dec-04 06:12 UTC.
Position N 48°39' W 002°01'.

Length 75 m; draft 4.2 m.

Type: Dredging. MMSI: 227003850.

Date/timePositionNaut miles runAvg speedWind from/ knotsBaromVisibWave heightAir tempDewpointWater temp
2016-Dec-01 17:18N 48°39' W 002°01'34 6.8
2016-Dec-01 12:19N 48°49' W 002°50'0 0.1
2016-Dec-01 11:31N 48°49' W 002°50'0 0.0
2016-Dec-01 02:27N 48°49' W 002°50'64 8.0
2016-Nov-30 18:30N 48°43' W 004°26'1111.6
2016-Nov-30 17:33N 48°39' W 004°41'1111.2
2016-Nov-30 16:34N 48°30' W 004°50'1110.6
2016-Nov-30 15:34N 48°20' W 004°48'1010.1
2016-Nov-30 14:33N 48°10' W 004°46'1110.9
2016-Nov-30 13:33N 47°59' W 004°42'4110.2
2016-Nov-30 09:30N 47°38' W 003°49'1010.6
2016-Nov-30 08:33N 47°40' W 003°34'10 9.5
2016-Nov-30 07:33N 47°44' W 003°21'1 1.5
2016-Nov-30 06:33N 47°45' W 003°19'0 0.0
2016-Nov-30 05:33N 47°45' W 003°19'0 0.0
2016-Nov-30 04:34N 47°45' W 003°19'2 1.6
2016-Nov-30 03:32N 47°44' W 003°21'0 0.0
2016-Nov-30 02:33N 47°44' W 003°21'0 0.0
2016-Nov-30 01:34N 47°44' W 003°21'0 0.0
2016-Nov-30 00:33N 47°44' W 003°21'0 0.0
2016-Nov-29 23:33N 47°44' W 003°21'0 0.0
2016-Nov-29 22:33N 47°44' W 003°21'0 0.0
2016-Nov-29 21:33N 47°44' W 003°21'0 0.0
2016-Nov-29 20:33N 47°44' W 003°21'0 0.1
2016-Nov-29 19:33N 47°44' W 003°21'7 7.3
2016-Nov-29 18:34N 47°37' W 003°20'9 9.3
2016-Nov-29 17:34N 47°29' W 003°13'9 9.4
2016-Nov-29 16:33N 47°22' W 003°04'9 9.0
2016-Nov-29 15:33N 47°15' W 002°55'9 8.8
2016-Nov-29 14:33N 47°08' W 002°47'45 9.0
2016-Nov-29 09:33N 46°34' W 002°04'9 9.4
2016-Nov-29 08:33N 46°26' W 001°57'9 9.3
2016-Nov-29 07:33N 46°18' W 001°49'7 1.1
2016-Nov-29 01:33N 46°13' W 001°44'10 9.7
2016-Nov-29 00:33N 46°21' W 001°52'1010.0
2016-Nov-28 23:33N 46°29' W 001°60'10 9.9
2016-Nov-28 22:33N 46°37' W 002°07'12 9.5
2016-Nov-28 21:19N 46°47' W 002°17'24 8.6
2016-Nov-28 18:29N 47°11' W 002°18'1112.0
2016-Nov-28 17:33N 47°18' W 002°05'1212.0
2016-Nov-28 16:33N 47°13' W 001°49'8 7.6
2016-Nov-28 15:33N 47°12' W 001°38'0 0.0
2016-Nov-28 14:33N 47°12' W 001°38'1 0.8
2016-Nov-28 13:34N 47°11' W 001°39'1010.0
2016-Nov-28 12:33N 47°16' W 001°52'1110.6
2016-Nov-28 11:33N 47°18' W 002°07'11 9.2
2016-Nov-28 10:22N 47°10' W 002°18'32 6.6
2016-Nov-28 05:29N 46°38' W 002°08'8 8.7
2016-Nov-28 04:33N 46°32' W 002°01'9 8.6
2016-Nov-28 03:33N 46°25' W 001°54'9 8.8
2016-Nov-28 02:33N 46°18' W 001°47'4 0.6
2016-Nov-27 20:24N 46°14' W 001°49'8 9.8
2016-Nov-27 19:33N 46°20' W 001°57'10 9.8
2016-Nov-27 18:33N 46°26' W 002°08'43 9.9
2016-Nov-27 14:12N 46°56' W 002°53'710.1
2016-Nov-27 13:30N 47°01' W 003°01'1010.0
2016-Nov-27 12:33N 47°07' W 003°12'10 9.8
2016-Nov-27 11:33N 47°13' W 003°23'9 9.4
2016-Nov-27 10:33N 47°19' W 003°34'9 9.1
2016-Nov-27 09:31N 47°24' W 003°45'9 9.0
2016-Nov-27 08:31N 47°29' W 003°56'42 9.6
2016-Nov-27 04:12N 47°58' W 004°41'711.4
2016-Nov-27 03:33N 48°04' W 004°46'1110.6
2016-Nov-27 02:33N 48°15' W 004°46'9 9.4
2016-Nov-27 01:33N 48°24' W 004°49'9 8.9
2016-Nov-27 00:33N 48°33' W 004°51'9 8.6
2016-Nov-26 23:33N 48°40' W 004°43'1010.0
2016-Nov-26 22:33N 48°42' W 004°28'  

Dump ship's entire track history